Main page
METAR-TAF:

METAR-TAF

Airports :

Ouagadougou, Burkina Faso

Ouagadougou Airport

latitude: 12-21N, longitude: 001-31W, elevation: 316 m

Current weather observation

The report was made 2 hours and 15 minutes ago, at 01:00 UTC
Wind 2 kt from the North/Northwest
Temperature 24°C
Humidity 54%
Pressure 1011 hPa
Visibility: 2500 m
widespread dust

METAR: DFFD 190100Z 33002KT 2500 DU NSC 24/14 Q1011 BECMG 6000 NSW

Time: 03:15 (03:15 UTC)

Forecast

The report was made 4 hours and 15 minutes ago, at 23:00 UTC
Forecast valid from 19 at 00 UTC to 20 at 06 UTC
Wind 6 kt from variable directions
Visibility: 8000 m
Temporary
from 19 at 06 UTC to 19 at 10 UTC
Visibility: 4000 m
haze
Temporary
from 19 at 17 UTC to 19 at 20 UTC
Visibility: 4000 m
haze

TAF: DFFD 182300Z 1900/2006 VRB06KT 8000 NSC TEMPO 1906/1910 4000 HZ TEMPO 1917/1920 4000 HZ

Weather observations and forecasts of more than 4000 airports (METAR and TAF reports).

The available stations are represented by yellow and red dots on the map.

Hover mouse over dot to see the name of the station.

Then click to see weather observations and forecasts.

To change the map : click on the green buttons with a black cross to zoom in, on the green button with a dash to zoom out, or on the green arrows for adjacent maps.


METAR-TAF: